Aérodrome :
LOGIN :

S'inscrire | Disclaimer

   EN    FR    IT 

 










Légende :    VFR   VFR Marginal   IFR   IFR Intensif   IFR Très Intensif
Visi : 
Plafond : 
>= 8 km
>= 3000ft
5 à 8 km
1000 à 3000 ft
1500m à 5 km
500 à 1000 ft
800 à 1500m
200 à 500 ft
< 800m
< 200 ft
Symboles :   Orages  Brouillard  Fortes neiges  Fortes précipitations  Vent > 20 kt
SIGMETs :   Divers  Orages  Givrage  Turbulence  Onde Orograph.  Cendres Volcan.






- Altitude de l'aérodrome : 326 ft
- Code IATA : LCG


LECO - A Coruna

DERNIER METAR :
  • 201130Z 20010KT 140V230 9999 FEW034 10/07 Q1005 TEMPO SHRA BKN020TCU

METARs EXPIRÉS :
  • 201100Z 17008KT 140V200 9999 -DZ FEW034 SCT048 09/07 Q1005 TEMPO SHRA BKN020TCU
  • 201030Z 19008KT 160V230 9999 FEW034 SCT048 10/07 Q1005 TEMPO SHRA BKN020TCU
  • 201000Z 21007KT 9999 SCT034 BKN048 09/07 Q1005 TEMPO SHRA BKN020TCU
  • 200930Z 25008KT 210V280 9999 SCT034 09/07 Q1006 NOSIG
  • 200900Z 21008KT 9999 SCT037 09/07 Q1006 NOSIG

TAF TAF LECO
Valide du 20 à 09h jusqu'au 21 à 09h UTC


200800Z 2009/2109 22008KT 9999 FEW025 SCT040 TX12/2015Z TN06/2106Z
TEMPO 2010/2017 19015G25KT
PROB30
TEMPO 2009/2011 RA
TEMPO 2011/2103 RA SHRA SCT030TCU
PROB30
TEMPO 2011/2022 4000 SHRAGR TS SCT030CB
PROB30
TEMPO 2103/2109 SHRA TS SCT030CB
PROB40
TEMPO 2104/2108 3000 -RA BR BCFG



MET'MAP, la Météo Aéronautique d'un coup d'oeil ! - Copyright ORBIFLY Décembre 2007 - Disclaimer

ORBIFLY MET'MAP TEAM :

Programmation & Développement : Alexandra Zaïnal
Conception & Développement : Baudouin d'Aumeries
Co-Programmation & Développement : Marc-Olivier Méhu
Soutien technique & logistique : Manuel Goepfert

Contact : metmap@orbifly.com




SOURCES & CREDITS :

   NOAA